sensor_id;sensor_type;location;lat;lon;timestamp;P1;durP1;ratioP1;P2;durP2;ratioP2
61358;SDS011;47228;46.762;23.598;2022-12-29T00:01:46;47.30;;;24.30;;
61358;SDS011;47228;46.762;23.598;2022-12-29T00:04:14;42.20;;;23.90;;
61358;SDS011;47228;46.762;23.598;2022-12-29T00:06:42;42.70;;;24.20;;
61358;SDS011;47228;46.762;23.598;2022-12-29T00:09:11;38.70;;;23.10;;
61358;SDS011;47228;46.762;23.598;2022-12-29T00:11:40;39.80;;;21.10;;
61358;SDS011;47228;46.762;23.598;2022-12-29T00:14:09;36.60;;;21.60;;
61358;SDS011;47228;46.762;23.598;2022-12-29T00:16:56;37.60;;;20.40;;
61358;SDS011;47228;46.762;23.598;2022-12-29T00:19:24;34.80;;;20.90;;
61358;SDS011;47228;46.762;23.598;2022-12-29T00:22:11;35.90;;;21.30;;
61358;SDS011;47228;46.762;23.598;2022-12-29T00:25:00;34.10;;;20.50;;
61358;SDS011;47228;46.762;23.598;2022-12-29T00:27:47;42.50;;;23.30;;
61358;SDS011;47228;46.762;23.598;2022-12-29T00:30:34;41.00;;;22.60;;
61358;SDS011;47228;46.762;23.598;2022-12-29T00:33:25;35.60;;;21.40;;
61358;SDS011;47228;46.762;23.598;2022-12-29T00:38:49;39.40;;;21.80;;
61358;SDS011;47228;46.762;23.598;2022-12-29T00:41:38;36.00;;;21.00;;
61358;SDS011;47228;46.762;23.598;2022-12-29T00:44:25;35.30;;;21.60;;
61358;SDS011;47228;46.762;23.598;2022-12-29T00:46:53;41.20;;;22.30;;
61358;SDS011;47228;46.762;23.598;2022-12-29T00:49:21;38.60;;;21.30;;
61358;SDS011;47228;46.762;23.598;2022-12-29T00:52:08;39.00;;;22.00;;
61358;SDS011;47228;46.762;23.598;2022-12-29T00:54:39;38.10;;;22.20;;
61358;SDS011;47228;46.762;23.598;2022-12-29T00:57:09;35.90;;;22.50;;
61358;SDS011;47228;46.762;23.598;2022-12-29T00:59:38;35.00;;;21.20;;
61358;SDS011;47228;46.762;23.598;2022-12-29T01:02:08;31.10;;;20.10;;
61358;SDS011;47228;46.762;23.598;2022-12-29T01:04:37;37.20;;;21.40;;
61358;SDS011;47228;46.762;23.598;2022-12-29T01:07:06;37.40;;;21.20;;
61358;SDS011;47228;46.762;23.598;2022-12-29T01:09:34;32.50;;;20.70;;
61358;SDS011;47228;46.762;23.598;2022-12-29T01:12:21;35.60;;;20.10;;
61358;SDS011;47228;46.762;23.598;2022-12-29T01:15:08;35.20;;;19.00;;
61358;SDS011;47228;46.762;23.598;2022-12-29T01:17:37;36.80;;;21.30;;
61358;SDS011;47228;46.762;23.598;2022-12-29T01:20:06;34.90;;;21.40;;
61358;SDS011;47228;46.762;23.598;2022-12-29T01:22:34;32.60;;;19.20;;
61358;SDS011;47228;46.762;23.598;2022-12-29T01:25:02;35.00;;;21.20;;
61358;SDS011;47228;46.762;23.598;2022-12-29T01:27:31;37.00;;;20.20;;
61358;SDS011;47228;46.762;23.598;2022-12-29T01:29:59;31.00;;;19.70;;
61358;SDS011;47228;46.762;23.598;2022-12-29T01:32:27;32.50;;;18.70;;
61358;SDS011;47228;46.762;23.598;2022-12-29T01:34:55;29.80;;;18.50;;
61358;SDS011;47228;46.762;23.598;2022-12-29T01:37:23;32.60;;;19.00;;
61358;SDS011;47228;46.762;23.598;2022-12-29T01:39:51;32.60;;;19.40;;
61358;SDS011;47228;46.762;23.598;2022-12-29T01:42:21;35.60;;;21.10;;
61358;SDS011;47228;46.762;23.598;2022-12-29T01:44:53;40.50;;;19.90;;
61358;SDS011;47228;46.762;23.598;2022-12-29T01:47:26;30.90;;;19.90;;
61358;SDS011;47228;46.762;23.598;2022-12-29T01:49:56;29.90;;;18.20;;
61358;SDS011;47228;46.762;23.598;2022-12-29T01:52:28;34.00;;;19.80;;
61358;SDS011;47228;46.762;23.598;2022-12-29T01:54:59;32.00;;;19.00;;
61358;SDS011;47228;46.762;23.598;2022-12-29T01:57:34;32.20;;;19.70;;
61358;SDS011;47228;46.762;23.598;2022-12-29T02:00:11;30.90;;;18.90;;
61358;SDS011;47228;46.762;23.598;2022-12-29T02:02:48;31.90;;;19.40;;
61358;SDS011;47228;46.762;23.598;2022-12-29T02:05:33;30.00;;;20.30;;
61358;SDS011;47228;46.762;23.598;2022-12-29T02:08:12;32.90;;;21.40;;
61358;SDS011;47228;46.762;23.598;2022-12-29T02:10:41;33.50;;;21.70;;
61358;SDS011;47228;46.762;23.598;2022-12-29T02:13:10;31.40;;;20.30;;
61358;SDS011;47228;46.762;23.598;2022-12-29T02:16:02;30.50;;;20.60;;
61358;SDS011;47228;46.762;23.598;2022-12-29T02:26:48;31.60;;;20.00;;
61358;SDS011;47228;46.762;23.598;2022-12-29T02:30:00;31.70;;;20.80;;
61358;SDS011;47228;46.762;23.598;2022-12-29T02:44:12;35.10;;;21.10;;
61358;SDS011;47228;46.762;23.598;2022-12-29T02:46:54;35.40;;;20.00;;
61358;SDS011;47228;46.762;23.598;2022-12-29T02:52:04;31.50;;;20.50;;
61358;SDS011;47228;46.762;23.598;2022-12-29T02:54:38;32.20;;;19.80;;
61358;SDS011;47228;46.762;23.598;2022-12-29T03:00:31;35.20;;;22.20;;
61358;SDS011;47228;46.762;23.598;2022-12-29T03:11:15;32.90;;;21.80;;
61358;SDS011;47228;46.762;23.598;2022-12-29T03:14:08;33.40;;;21.90;;
61358;SDS011;47228;46.762;23.598;2022-12-29T03:17:01;35.40;;;22.60;;
61358;SDS011;47228;46.762;23.598;2022-12-29T03:19:39;35.40;;;21.50;;
61358;SDS011;47228;46.762;23.598;2022-12-29T03:22:25;40.40;;;22.80;;
61358;SDS011;47228;46.762;23.598;2022-12-29T03:27:58;33.60;;;20.90;;
61358;SDS011;47228;46.762;23.598;2022-12-29T03:30:30;32.70;;;20.50;;
61358;SDS011;47228;46.762;23.598;2022-12-29T03:33:02;32.80;;;21.60;;
61358;SDS011;47228;46.762;23.598;2022-12-29T03:35:33;30.50;;;21.60;;
61358;SDS011;47228;46.762;23.598;2022-12-29T03:40:56;31.40;;;20.70;;
61358;SDS011;47228;46.762;23.598;2022-12-29T03:43:27;36.20;;;22.00;;
61358;SDS011;47228;46.762;23.598;2022-12-29T03:45:56;32.60;;;21.00;;
61358;SDS011;47228;46.762;23.598;2022-12-29T03:48:24;40.70;;;24.20;;
61358;SDS011;47228;46.762;23.598;2022-12-29T03:50:52;41.10;;;25.10;;
61358;SDS011;47228;46.762;23.598;2022-12-29T03:53:20;36.50;;;23.80;;
61358;SDS011;47228;46.762;23.598;2022-12-29T03:55:48;34.40;;;21.60;;
61358;SDS011;47228;46.762;23.598;2022-12-29T03:58:17;33.70;;;21.90;;
61358;SDS011;47228;46.762;23.598;2022-12-29T04:00:44;33.80;;;21.40;;
61358;SDS011;47228;46.762;23.598;2022-12-29T04:03:12;35.30;;;22.00;;
61358;SDS011;47228;46.762;23.598;2022-12-29T04:05:40;34.20;;;21.70;;
61358;SDS011;47228;46.762;23.598;2022-12-29T04:08:08;34.20;;;22.00;;
61358;SDS011;47228;46.762;23.598;2022-12-29T04:10:36;37.10;;;22.00;;
61358;SDS011;47228;46.762;23.598;2022-12-29T04:13:04;34.50;;;22.60;;
61358;SDS011;47228;46.762;23.598;2022-12-29T04:15:32;38.10;;;23.20;;
61358;SDS011;47228;46.762;23.598;2022-12-29T04:18:00;34.10;;;23.30;;
61358;SDS011;47228;46.762;23.598;2022-12-29T04:20:28;34.30;;;21.60;;
61358;SDS011;47228;46.762;23.598;2022-12-29T04:23:15;35.10;;;22.10;;
61358;SDS011;47228;46.762;23.598;2022-12-29T04:25:45;36.30;;;23.00;;
61358;SDS011;47228;46.762;23.598;2022-12-29T04:28:15;36.10;;;22.60;;
61358;SDS011;47228;46.762;23.598;2022-12-29T04:30:45;32.90;;;22.00;;
61358;SDS011;47228;46.762;23.598;2022-12-29T04:33:14;36.80;;;22.30;;
61358;SDS011;47228;46.762;23.598;2022-12-29T04:35:45;37.50;;;22.40;;
61358;SDS011;47228;46.762;23.598;2022-12-29T04:38:13;34.90;;;22.50;;
61358;SDS011;47228;46.762;23.598;2022-12-29T04:40:43;41.90;;;24.60;;
61358;SDS011;47228;46.762;23.598;2022-12-29T04:43:12;39.80;;;24.00;;
61358;SDS011;47228;46.762;23.598;2022-12-29T04:45:45;36.90;;;22.70;;
61358;SDS011;47228;46.762;23.598;2022-12-29T04:48:14;34.70;;;22.10;;
61358;SDS011;47228;46.762;23.598;2022-12-29T04:50:42;40.80;;;23.40;;
61358;SDS011;47228;46.762;23.598;2022-12-29T04:53:10;35.80;;;22.90;;
61358;SDS011;47228;46.762;23.598;2022-12-29T04:55:38;37.00;;;22.70;;
61358;SDS011;47228;46.762;23.598;2022-12-29T04:58:06;37.10;;;22.90;;
61358;SDS011;47228;46.762;23.598;2022-12-29T05:00:34;34.50;;;22.90;;
61358;SDS011;47228;46.762;23.598;2022-12-29T05:03:01;40.50;;;25.00;;
61358;SDS011;47228;46.762;23.598;2022-12-29T05:05:30;41.00;;;24.70;;
61358;SDS011;47228;46.762;23.598;2022-12-29T05:07:58;41.50;;;24.40;;
61358;SDS011;47228;46.762;23.598;2022-12-29T05:10:26;35.50;;;22.50;;
61358;SDS011;47228;46.762;23.598;2022-12-29T05:12:54;35.30;;;23.40;;
61358;SDS011;47228;46.762;23.598;2022-12-29T05:15:22;37.20;;;23.80;;
61358;SDS011;47228;46.762;23.598;2022-12-29T05:17:50;39.00;;;24.80;;
61358;SDS011;47228;46.762;23.598;2022-12-29T05:20:18;38.60;;;25.10;;
61358;SDS011;47228;46.762;23.598;2022-12-29T05:22:46;37.10;;;25.00;;
61358;SDS011;47228;46.762;23.598;2022-12-29T05:25:14;40.80;;;25.10;;
61358;SDS011;47228;46.762;23.598;2022-12-29T05:27:42;44.90;;;27.20;;
61358;SDS011;47228;46.762;23.598;2022-12-29T05:30:10;39.90;;;26.10;;
61358;SDS011;47228;46.762;23.598;2022-12-29T05:32:38;42.30;;;26.40;;
61358;SDS011;47228;46.762;23.598;2022-12-29T05:35:07;37.20;;;23.90;;
61358;SDS011;47228;46.762;23.598;2022-12-29T05:37:36;38.80;;;25.20;;
61358;SDS011;47228;46.762;23.598;2022-12-29T05:40:04;41.40;;;24.90;;
61358;SDS011;47228;46.762;23.598;2022-12-29T05:42:33;38.20;;;24.30;;
61358;SDS011;47228;46.762;23.598;2022-12-29T05:45:01;41.30;;;25.90;;
61358;SDS011;47228;46.762;23.598;2022-12-29T05:47:28;38.30;;;25.80;;
61358;SDS011;47228;46.762;23.598;2022-12-29T05:49:56;41.50;;;26.10;;
61358;SDS011;47228;46.762;23.598;2022-12-29T05:52:24;41.40;;;25.80;;
61358;SDS011;47228;46.762;23.598;2022-12-29T05:54:52;45.90;;;26.60;;
61358;SDS011;47228;46.762;23.598;2022-12-29T05:57:20;42.40;;;24.70;;
61358;SDS011;47228;46.762;23.598;2022-12-29T05:59:48;43.90;;;24.00;;
61358;SDS011;47228;46.762;23.598;2022-12-29T06:02:16;39.50;;;23.20;;
61358;SDS011;47228;46.762;23.598;2022-12-29T06:04:44;39.80;;;24.40;;
61358;SDS011;47228;46.762;23.598;2022-12-29T06:07:12;39.20;;;23.90;;
61358;SDS011;47228;46.762;23.598;2022-12-29T06:09:40;37.30;;;23.70;;
61358;SDS011;47228;46.762;23.598;2022-12-29T06:12:08;39.90;;;25.60;;
61358;SDS011;47228;46.762;23.598;2022-12-29T06:14:43;41.40;;;26.00;;
61358;SDS011;47228;46.762;23.598;2022-12-29T06:17:11;46.30;;;27.10;;
61358;SDS011;47228;46.762;23.598;2022-12-29T06:19:39;44.30;;;25.90;;
61358;SDS011;47228;46.762;23.598;2022-12-29T06:22:07;48.20;;;27.40;;
61358;SDS011;47228;46.762;23.598;2022-12-29T06:24:35;44.90;;;27.50;;
61358;SDS011;47228;46.762;23.598;2022-12-29T06:27:03;45.20;;;28.30;;
61358;SDS011;47228;46.762;23.598;2022-12-29T06:29:31;51.30;;;28.90;;
61358;SDS011;47228;46.762;23.598;2022-12-29T06:31:59;48.20;;;28.30;;
61358;SDS011;47228;46.762;23.598;2022-12-29T06:34:27;43.80;;;28.00;;
61358;SDS011;47228;46.762;23.598;2022-12-29T06:36:55;46.10;;;29.90;;
61358;SDS011;47228;46.762;23.598;2022-12-29T06:39:23;47.60;;;29.50;;
61358;SDS011;47228;46.762;23.598;2022-12-29T06:41:51;46.80;;;28.90;;
61358;SDS011;47228;46.762;23.598;2022-12-29T06:44:21;47.60;;;27.30;;
61358;SDS011;47228;46.762;23.598;2022-12-29T06:46:49;46.20;;;27.50;;
61358;SDS011;47228;46.762;23.598;2022-12-29T06:49:18;52.00;;;28.30;;
61358;SDS011;47228;46.762;23.598;2022-12-29T06:51:46;49.10;;;27.90;;
61358;SDS011;47228;46.762;23.598;2022-12-29T06:54:14;44.20;;;25.70;;
61358;SDS011;47228;46.762;23.598;2022-12-29T06:56:43;44.10;;;26.20;;
61358;SDS011;47228;46.762;23.598;2022-12-29T06:59:10;41.10;;;25.10;;
61358;SDS011;47228;46.762;23.598;2022-12-29T07:01:38;40.40;;;25.30;;
61358;SDS011;47228;46.762;23.598;2022-12-29T07:04:07;43.70;;;26.40;;
61358;SDS011;47228;46.762;23.598;2022-12-29T07:06:35;45.10;;;27.10;;
61358;SDS011;47228;46.762;23.598;2022-12-29T07:09:03;48.10;;;27.20;;
61358;SDS011;47228;46.762;23.598;2022-12-29T07:11:31;49.90;;;27.10;;
61358;SDS011;47228;46.762;23.598;2022-12-29T07:14:01;41.50;;;25.00;;
61358;SDS011;47228;46.762;23.598;2022-12-29T07:16:31;49.80;;;25.80;;
61358;SDS011;47228;46.762;23.598;2022-12-29T07:19:00;43.20;;;26.00;;
61358;SDS011;47228;46.762;23.598;2022-12-29T07:21:28;43.10;;;25.40;;
61358;SDS011;47228;46.762;23.598;2022-12-29T07:23:56;44.80;;;26.90;;
61358;SDS011;47228;46.762;23.598;2022-12-29T07:26:28;41.30;;;25.30;;
61358;SDS011;47228;46.762;23.598;2022-12-29T07:29:03;47.90;;;27.80;;
61358;SDS011;47228;46.762;23.598;2022-12-29T07:31:31;49.70;;;28.90;;
61358;SDS011;47228;46.762;23.598;2022-12-29T07:34:00;49.10;;;27.10;;
61358;SDS011;47228;46.762;23.598;2022-12-29T07:36:28;49.20;;;29.50;;
61358;SDS011;47228;46.762;23.598;2022-12-29T07:39:01;50.40;;;30.10;;
61358;SDS011;47228;46.762;23.598;2022-12-29T07:41:30;53.50;;;28.80;;
61358;SDS011;47228;46.762;23.598;2022-12-29T07:43:58;57.10;;;29.10;;
61358;SDS011;47228;46.762;23.598;2022-12-29T07:46:26;48.10;;;27.70;;
61358;SDS011;47228;46.762;23.598;2022-12-29T07:49:14;53.30;;;30.30;;
61358;SDS011;47228;46.762;23.598;2022-12-29T07:51:42;53.50;;;30.10;;
61358;SDS011;47228;46.762;23.598;2022-12-29T07:54:10;52.30;;;31.60;;
61358;SDS011;47228;46.762;23.598;2022-12-29T07:56:40;53.40;;;31.40;;
61358;SDS011;47228;46.762;23.598;2022-12-29T07:59:08;52.70;;;29.10;;
61358;SDS011;47228;46.762;23.598;2022-12-29T08:01:36;50.10;;;29.30;;
61358;SDS011;47228;46.762;23.598;2022-12-29T08:04:04;51.40;;;29.30;;
61358;SDS011;47228;46.762;23.598;2022-12-29T08:06:32;55.00;;;28.20;;
61358;SDS011;47228;46.762;23.598;2022-12-29T08:09:00;49.80;;;30.40;;
61358;SDS011;47228;46.762;23.598;2022-12-29T08:11:43;55.10;;;30.80;;
61358;SDS011;47228;46.762;23.598;2022-12-29T08:14:11;52.40;;;30.30;;
61358;SDS011;47228;46.762;23.598;2022-12-29T08:16:39;50.70;;;31.20;;
61358;SDS011;47228;46.762;23.598;2022-12-29T08:19:09;47.40;;;30.20;;
61358;SDS011;47228;46.762;23.598;2022-12-29T08:21:39;55.80;;;30.80;;
61358;SDS011;47228;46.762;23.598;2022-12-29T08:24:07;48.90;;;29.80;;
61358;SDS011;47228;46.762;23.598;2022-12-29T08:26:36;44.90;;;28.50;;
61358;SDS011;47228;46.762;23.598;2022-12-29T08:29:04;45.90;;;27.90;;
61358;SDS011;47228;46.762;23.598;2022-12-29T08:31:32;46.00;;;28.60;;
61358;SDS011;47228;46.762;23.598;2022-12-29T08:34:00;49.70;;;30.10;;
61358;SDS011;47228;46.762;23.598;2022-12-29T08:36:31;49.90;;;29.60;;
61358;SDS011;47228;46.762;23.598;2022-12-29T08:38:59;49.60;;;28.40;;
61358;SDS011;47228;46.762;23.598;2022-12-29T08:41:27;46.40;;;28.00;;
61358;SDS011;47228;46.762;23.598;2022-12-29T08:43:55;48.90;;;28.00;;
61358;SDS011;47228;46.762;23.598;2022-12-29T08:46:26;43.30;;;26.10;;
61358;SDS011;47228;46.762;23.598;2022-12-29T08:48:54;45.00;;;27.60;;
61358;SDS011;47228;46.762;23.598;2022-12-29T08:51:22;48.90;;;27.20;;
61358;SDS011;47228;46.762;23.598;2022-12-29T08:53:51;45.60;;;26.60;;
61358;SDS011;47228;46.762;23.598;2022-12-29T08:56:20;47.40;;;29.00;;
61358;SDS011;47228;46.762;23.598;2022-12-29T08:58:48;43.20;;;27.70;;
61358;SDS011;47228;46.762;23.598;2022-12-29T09:01:16;45.90;;;28.20;;
61358;SDS011;47228;46.762;23.598;2022-12-29T09:03:44;41.50;;;25.10;;
61358;SDS011;47228;46.762;23.598;2022-12-29T09:06:32;47.60;;;27.30;;
61358;SDS011;47228;46.762;23.598;2022-12-29T09:09:07;41.10;;;26.70;;
61358;SDS011;47228;46.762;23.598;2022-12-29T09:11:35;41.60;;;27.40;;
61358;SDS011;47228;46.762;23.598;2022-12-29T09:14:03;42.00;;;26.50;;
61358;SDS011;47228;46.762;23.598;2022-12-29T09:16:31;41.00;;;27.70;;
61358;SDS011;47228;46.762;23.598;2022-12-29T09:19:00;44.60;;;29.00;;
61358;SDS011;47228;46.762;23.598;2022-12-29T09:21:29;50.00;;;29.90;;
61358;SDS011;47228;46.762;23.598;2022-12-29T09:23:57;44.90;;;26.40;;
61358;SDS011;47228;46.762;23.598;2022-12-29T09:26:25;44.50;;;26.10;;
61358;SDS011;47228;46.762;23.598;2022-12-29T09:28:53;39.70;;;26.80;;
61358;SDS011;47228;46.762;23.598;2022-12-29T09:31:21;42.80;;;26.70;;
61358;SDS011;47228;46.762;23.598;2022-12-29T09:33:50;46.80;;;27.10;;
61358;SDS011;47228;46.762;23.598;2022-12-29T09:36:18;46.40;;;28.80;;
61358;SDS011;47228;46.762;23.598;2022-12-29T09:38:46;48.20;;;29.20;;
61358;SDS011;47228;46.762;23.598;2022-12-29T09:41:16;45.30;;;28.40;;
61358;SDS011;47228;46.762;23.598;2022-12-29T09:46:43;49.80;;;31.30;;
61358;SDS011;47228;46.762;23.598;2022-12-29T09:49:28;48.70;;;29.40;;
61358;SDS011;47228;46.762;23.598;2022-12-29T09:52:14;49.00;;;29.40;;
61358;SDS011;47228;46.762;23.598;2022-12-29T09:54:51;47.20;;;27.80;;
61358;SDS011;47228;46.762;23.598;2022-12-29T09:57:32;47.60;;;30.20;;
61358;SDS011;47228;46.762;23.598;2022-12-29T10:00:12;51.40;;;31.10;;
61358;SDS011;47228;46.762;23.598;2022-12-29T10:02:45;40.10;;;28.40;;
61358;SDS011;47228;46.762;23.598;2022-12-29T10:08:23;45.70;;;29.50;;
61358;SDS011;47228;46.762;23.598;2022-12-29T10:24:32;70.00;;;36.00;;
61358;SDS011;47228;46.762;23.598;2022-12-29T10:27:05;59.30;;;34.80;;
61358;SDS011;47228;46.762;23.598;2022-12-29T10:29:40;55.10;;;31.20;;
61358;SDS011;47228;46.762;23.598;2022-12-29T10:32:17;56.70;;;30.20;;
61358;SDS011;47228;46.762;23.598;2022-12-29T10:34:49;53.30;;;32.30;;
61358;SDS011;47228;46.762;23.598;2022-12-29T10:37:31;61.20;;;32.40;;
61358;SDS011;47228;46.762;23.598;2022-12-29T10:45:53;41.80;;;25.70;;
61358;SDS011;47228;46.762;23.598;2022-12-29T10:48:31;43.00;;;27.00;;
61358;SDS011;47228;46.762;23.598;2022-12-29T10:51:01;42.80;;;27.10;;
61358;SDS011;47228;46.762;23.598;2022-12-29T10:56:39;40.40;;;24.90;;
61358;SDS011;47228;46.762;23.598;2022-12-29T10:59:17;39.60;;;25.70;;
61358;SDS011;47228;46.762;23.598;2022-12-29T11:07:06;36.40;;;25.00;;
61358;SDS011;47228;46.762;23.598;2022-12-29T11:09:42;38.00;;;24.80;;
61358;SDS011;47228;46.762;23.598;2022-12-29T11:12:19;36.20;;;22.90;;
61358;SDS011;47228;46.762;23.598;2022-12-29T11:17:58;41.60;;;25.20;;
61358;SDS011;47228;46.762;23.598;2022-12-29T11:22:55;33.60;;;22.50;;
61358;SDS011;47228;46.762;23.598;2022-12-29T11:25:23;31.20;;;20.30;;
61358;SDS011;47228;46.762;23.598;2022-12-29T11:28:02;26.80;;;17.50;;
61358;SDS011;47228;46.762;23.598;2022-12-29T11:30:42;28.50;;;18.20;;
61358;SDS011;47228;46.762;23.598;2022-12-29T11:33:10;29.60;;;17.60;;
61358;SDS011;47228;46.762;23.598;2022-12-29T11:35:41;26.20;;;17.30;;
61358;SDS011;47228;46.762;23.598;2022-12-29T11:38:54;24.00;;;16.90;;
61358;SDS011;47228;46.762;23.598;2022-12-29T11:41:10;31.50;;;19.10;;
61358;SDS011;47228;46.762;23.598;2022-12-29T11:43:41;28.10;;;18.40;;
61358;SDS011;47228;46.762;23.598;2022-12-29T11:46:16;30.30;;;19.00;;
61358;SDS011;47228;46.762;23.598;2022-12-29T11:48:48;30.80;;;19.10;;
61358;SDS011;47228;46.762;23.598;2022-12-29T11:51:23;31.10;;;20.90;;
61358;SDS011;47228;46.762;23.598;2022-12-29T11:53:58;32.70;;;21.20;;
61358;SDS011;47228;46.762;23.598;2022-12-29T11:56:36;26.50;;;18.70;;
61358;SDS011;47228;46.762;23.598;2022-12-29T12:01:55;26.10;;;16.10;;
61358;SDS011;47228;46.762;23.598;2022-12-29T12:04:28;25.80;;;16.50;;
61358;SDS011;47228;46.762;23.598;2022-12-29T12:09:47;27.80;;;17.40;;
61358;SDS011;47228;46.762;23.598;2022-12-29T12:12:31;24.40;;;16.40;;
61358;SDS011;47228;46.762;23.598;2022-12-29T12:15:05;23.20;;;16.30;;
61358;SDS011;47228;46.762;23.598;2022-12-29T12:17:49;28.80;;;18.10;;
61358;SDS011;47228;46.762;23.598;2022-12-29T12:20:22;26.90;;;18.30;;
61358;SDS011;47228;46.762;23.598;2022-12-29T12:34:20;28.70;;;19.60;;
61358;SDS011;47228;46.762;23.598;2022-12-29T12:42:13;32.10;;;19.00;;
61358;SDS011;47228;46.762;23.598;2022-12-29T12:59:46;24.80;;;15.90;;
61358;SDS011;47228;46.762;23.598;2022-12-29T13:02:29;28.80;;;16.30;;
61358;SDS011;47228;46.762;23.598;2022-12-29T13:05:28;26.40;;;15.90;;
61358;SDS011;47228;46.762;23.598;2022-12-29T13:08:02;24.80;;;14.80;;
61358;SDS011;47228;46.762;23.598;2022-12-29T13:10:58;23.90;;;15.30;;
61358;SDS011;47228;46.762;23.598;2022-12-29T13:22:08;24.30;;;15.20;;
61358;SDS011;47228;46.762;23.598;2022-12-29T13:24:51;27.60;;;16.40;;
61358;SDS011;47228;46.762;23.598;2022-12-29T13:30:27;25.30;;;16.20;;
61358;SDS011;47228;46.762;23.598;2022-12-29T13:38:52;27.10;;;16.20;;
61358;SDS011;47228;46.762;23.598;2022-12-29T13:41:52;30.20;;;17.60;;
61358;SDS011;47228;46.762;23.598;2022-12-29T13:47:15;31.10;;;18.10;;
61358;SDS011;47228;46.762;23.598;2022-12-29T13:49:56;33.10;;;19.70;;
61358;SDS011;47228;46.762;23.598;2022-12-29T14:00:53;38.70;;;22.40;;
61358;SDS011;47228;46.762;23.598;2022-12-29T14:09:02;36.60;;;21.20;;
61358;SDS011;47228;46.762;23.598;2022-12-29T14:11:33;34.20;;;20.40;;
61358;SDS011;47228;46.762;23.598;2022-12-29T14:16:52;30.50;;;19.60;;
61358;SDS011;47228;46.762;23.598;2022-12-29T14:19:31;40.00;;;21.50;;
61358;SDS011;47228;46.762;23.598;2022-12-29T14:22:03;36.50;;;20.50;;
61358;SDS011;47228;46.762;23.598;2022-12-29T14:27:00;32.90;;;20.60;;
61358;SDS011;47228;46.762;23.598;2022-12-29T14:29:48;34.20;;;19.90;;
61358;SDS011;47228;46.762;23.598;2022-12-29T14:34:53;31.20;;;19.20;;
61358;SDS011;47228;46.762;23.598;2022-12-29T14:42:46;34.30;;;21.30;;
61358;SDS011;47228;46.762;23.598;2022-12-29T14:47:45;34.00;;;20.20;;
61358;SDS011;47228;46.762;23.598;2022-12-29T14:50:19;36.40;;;21.80;;
61358;SDS011;47228;46.762;23.598;2022-12-29T14:53:01;38.30;;;20.90;;
61358;SDS011;47228;46.762;23.598;2022-12-29T14:55:42;33.30;;;20.70;;
61358;SDS011;47228;46.762;23.598;2022-12-29T15:00:53;35.10;;;20.10;;
61358;SDS011;47228;46.762;23.598;2022-12-29T15:03:32;34.00;;;20.60;;
61358;SDS011;47228;46.762;23.598;2022-12-29T15:06:13;34.20;;;20.40;;
61358;SDS011;47228;46.762;23.598;2022-12-29T15:08:48;36.70;;;21.60;;
61358;SDS011;47228;46.762;23.598;2022-12-29T15:13:49;36.70;;;21.70;;
61358;SDS011;47228;46.762;23.598;2022-12-29T15:16:22;37.30;;;22.20;;
61358;SDS011;47228;46.762;23.598;2022-12-29T15:18:50;48.30;;;26.60;;
61358;SDS011;47228;46.762;23.598;2022-12-29T15:21:21;47.70;;;25.20;;
61358;SDS011;47228;46.762;23.598;2022-12-29T15:23:55;43.80;;;24.10;;
61358;SDS011;47228;46.762;23.598;2022-12-29T15:26:23;41.10;;;24.00;;
61358;SDS011;47228;46.762;23.598;2022-12-29T15:29:27;39.60;;;23.70;;
61358;SDS011;47228;46.762;23.598;2022-12-29T15:31:59;35.90;;;23.60;;
61358;SDS011;47228;46.762;23.598;2022-12-29T15:34:38;41.10;;;24.90;;
61358;SDS011;47228;46.762;23.598;2022-12-29T15:37:07;41.40;;;23.90;;
61358;SDS011;47228;46.762;23.598;2022-12-29T15:39:35;40.30;;;23.60;;
61358;SDS011;47228;46.762;23.598;2022-12-29T15:42:09;39.80;;;24.80;;
61358;SDS011;47228;46.762;23.598;2022-12-29T15:45:04;44.20;;;25.70;;
61358;SDS011;47228;46.762;23.598;2022-12-29T15:47:38;43.30;;;24.60;;
61358;SDS011;47228;46.762;23.598;2022-12-29T15:50:15;38.50;;;24.10;;
61358;SDS011;47228;46.762;23.598;2022-12-29T15:52:46;47.00;;;26.40;;
61358;SDS011;47228;46.762;23.598;2022-12-29T15:55:48;43.80;;;26.40;;
61358;SDS011;47228;46.762;23.598;2022-12-29T16:01:31;45.10;;;24.60;;
61358;SDS011;47228;46.762;23.598;2022-12-29T16:04:05;41.40;;;25.70;;
61358;SDS011;47228;46.762;23.598;2022-12-29T16:06:43;47.80;;;26.90;;
61358;SDS011;47228;46.762;23.598;2022-12-29T16:12:04;42.40;;;25.20;;
61358;SDS011;47228;46.762;23.598;2022-12-29T16:14:42;43.90;;;25.50;;
61358;SDS011;47228;46.762;23.598;2022-12-29T16:17:15;43.50;;;25.20;;
61358;SDS011;47228;46.762;23.598;2022-12-29T16:19:49;40.00;;;24.40;;
61358;SDS011;47228;46.762;23.598;2022-12-29T16:22:24;47.30;;;27.40;;
61358;SDS011;47228;46.762;23.598;2022-12-29T16:25:03;54.00;;;32.10;;
61358;SDS011;47228;46.762;23.598;2022-12-29T16:27:40;53.10;;;32.20;;
61358;SDS011;47228;46.762;23.598;2022-12-29T16:30:23;55.20;;;30.30;;
61358;SDS011;47228;46.762;23.598;2022-12-29T16:33:01;50.30;;;28.90;;
61358;SDS011;47228;46.762;23.598;2022-12-29T16:38:16;49.20;;;28.00;;
61358;SDS011;47228;46.762;23.598;2022-12-29T16:40:49;47.20;;;27.10;;
61358;SDS011;47228;46.762;23.598;2022-12-29T16:43:31;41.60;;;26.00;;
61358;SDS011;47228;46.762;23.598;2022-12-29T16:46:19;42.30;;;24.10;;
61358;SDS011;47228;46.762;23.598;2022-12-29T16:48:53;44.90;;;26.50;;
61358;SDS011;47228;46.762;23.598;2022-12-29T16:53:59;45.70;;;29.50;;
61358;SDS011;47228;46.762;23.598;2022-12-29T16:56:29;47.60;;;29.40;;
61358;SDS011;47228;46.762;23.598;2022-12-29T17:01:47;48.30;;;29.30;;
61358;SDS011;47228;46.762;23.598;2022-12-29T17:04:15;46.20;;;29.00;;
61358;SDS011;47228;46.762;23.598;2022-12-29T17:06:43;47.20;;;29.40;;
61358;SDS011;47228;46.762;23.598;2022-12-29T17:09:33;50.90;;;29.50;;
61358;SDS011;47228;46.762;23.598;2022-12-29T17:12:00;48.90;;;28.70;;
61358;SDS011;47228;46.762;23.598;2022-12-29T17:14:44;43.70;;;28.30;;
61358;SDS011;47228;46.762;23.598;2022-12-29T17:17:33;45.90;;;28.70;;
61358;SDS011;47228;46.762;23.598;2022-12-29T17:22:43;45.50;;;27.30;;
61358;SDS011;47228;46.762;23.598;2022-12-29T17:25:15;48.70;;;29.10;;
61358;SDS011;47228;46.762;23.598;2022-12-29T17:30:24;50.80;;;25.50;;
61358;SDS011;47228;46.762;23.598;2022-12-29T17:33:04;35.00;;;22.80;;
61358;SDS011;47228;46.762;23.598;2022-12-29T17:35:35;35.10;;;22.90;;
61358;SDS011;47228;46.762;23.598;2022-12-29T17:38:38;42.70;;;24.30;;
61358;SDS011;47228;46.762;23.598;2022-12-29T17:41:01;39.40;;;22.80;;
61358;SDS011;47228;46.762;23.598;2022-12-29T17:43:29;34.00;;;22.40;;
61358;SDS011;47228;46.762;23.598;2022-12-29T17:48:33;36.70;;;22.30;;
61358;SDS011;47228;46.762;23.598;2022-12-29T17:51:02;37.20;;;22.00;;
61358;SDS011;47228;46.762;23.598;2022-12-29T17:53:30;38.80;;;23.20;;
61358;SDS011;47228;46.762;23.598;2022-12-29T17:55:58;38.00;;;24.40;;
61358;SDS011;47228;46.762;23.598;2022-12-29T17:58:27;38.60;;;22.30;;